sensor_id;sensor_type;location;lat;lon;timestamp;P1;durP1;ratioP1;P2;durP2;ratioP2
7460;SDS011;6757;52.258;12.840;2024-01-30T00:00:41;1.15;;;1.08;;
7460;SDS011;6757;52.258;12.840;2024-01-30T00:03:10;4.60;;;1.55;;
7460;SDS011;6757;52.258;12.840;2024-01-30T00:05:38;2.33;;;1.60;;
7460;SDS011;6757;52.258;12.840;2024-01-30T00:08:07;5.70;;;1.42;;
7460;SDS011;6757;52.258;12.840;2024-01-30T00:10:34;0.47;;;0.40;;
7460;SDS011;6757;52.258;12.840;2024-01-30T00:13:01;2.00;;;1.02;;
7460;SDS011;6757;52.258;12.840;2024-01-30T00:15:29;1.33;;;1.20;;
7460;SDS011;6757;52.258;12.840;2024-01-30T00:17:56;1.55;;;0.57;;
7460;SDS011;6757;52.258;12.840;2024-01-30T00:20:23;1.05;;;1.05;;
7460;SDS011;6757;52.258;12.840;2024-01-30T00:22:50;0.90;;;0.77;;
7460;SDS011;6757;52.258;12.840;2024-01-30T00:25:19;0.93;;;0.93;;
7460;SDS011;6757;52.258;12.840;2024-01-30T00:27:47;0.73;;;0.73;;
7460;SDS011;6757;52.258;12.840;2024-01-30T00:30:14;2.05;;;0.93;;
7460;SDS011;6757;52.258;12.840;2024-01-30T00:32:42;3.10;;;1.27;;
7460;SDS011;6757;52.258;12.840;2024-01-30T00:35:09;0.90;;;0.90;;
7460;SDS011;6757;52.258;12.840;2024-01-30T00:37:36;0.80;;;0.68;;
7460;SDS011;6757;52.258;12.840;2024-01-30T00:40:05;0.52;;;0.52;;
7460;SDS011;6757;52.258;12.840;2024-01-30T00:42:36;1.98;;;0.93;;
7460;SDS011;6757;52.258;12.840;2024-01-30T00:45:04;5.15;;;1.67;;
7460;SDS011;6757;52.258;12.840;2024-01-30T00:47:31;2.10;;;1.52;;
7460;SDS011;6757;52.258;12.840;2024-01-30T00:49:59;2.10;;;0.98;;
7460;SDS011;6757;52.258;12.840;2024-01-30T00:52:26;0.80;;;0.80;;
7460;SDS011;6757;52.258;12.840;2024-01-30T00:54:54;2.55;;;1.27;;
7460;SDS011;6757;52.258;12.840;2024-01-30T00:57:21;0.15;;;0.15;;
7460;SDS011;6757;52.258;12.840;2024-01-30T00:59:50;2.28;;;1.15;;
7460;SDS011;6757;52.258;12.840;2024-01-30T01:02:18;0.50;;;0.50;;
7460;SDS011;6757;52.258;12.840;2024-01-30T01:04:46;2.65;;;1.33;;
7460;SDS011;6757;52.258;12.840;2024-01-30T01:07:13;0.95;;;0.88;;
7460;SDS011;6757;52.258;12.840;2024-01-30T01:09:40;0.95;;;0.82;;
7460;SDS011;6757;52.258;12.840;2024-01-30T01:12:07;4.22;;;1.95;;
7460;SDS011;6757;52.258;12.840;2024-01-30T01:14:34;0.70;;;0.52;;
7460;SDS011;6757;52.258;12.840;2024-01-30T01:17:04;1.85;;;0.95;;
7460;SDS011;6757;52.258;12.840;2024-01-30T01:19:31;0.55;;;0.35;;
7460;SDS011;6757;52.258;12.840;2024-01-30T01:21:59;4.25;;;2.05;;
7460;SDS011;6757;52.258;12.840;2024-01-30T01:24:30;0.60;;;0.60;;
7460;SDS011;6757;52.258;12.840;2024-01-30T01:26:59;1.30;;;0.85;;
7460;SDS011;6757;52.258;12.840;2024-01-30T01:29:26;0.35;;;0.32;;
7460;SDS011;6757;52.258;12.840;2024-01-30T01:31:55;0.93;;;0.88;;
7460;SDS011;6757;52.258;12.840;2024-01-30T01:34:23;0.45;;;0.45;;
7460;SDS011;6757;52.258;12.840;2024-01-30T01:36:51;0.73;;;0.73;;
7460;SDS011;6757;52.258;12.840;2024-01-30T01:39:20;0.15;;;0.15;;
7460;SDS011;6757;52.258;12.840;2024-01-30T01:41:49;1.00;;;0.85;;
7460;SDS011;6757;52.258;12.840;2024-01-30T01:44:18;1.77;;;0.88;;
7460;SDS011;6757;52.258;12.840;2024-01-30T01:46:45;0.63;;;0.63;;
7460;SDS011;6757;52.258;12.840;2024-01-30T01:49:12;1.27;;;1.17;;
7460;SDS011;6757;52.258;12.840;2024-01-30T01:51:43;3.72;;;1.88;;
7460;SDS011;6757;52.258;12.840;2024-01-30T01:54:12;0.38;;;0.30;;
7460;SDS011;6757;52.258;12.840;2024-01-30T01:56:41;1.45;;;1.13;;
7460;SDS011;6757;52.258;12.840;2024-01-30T01:59:09;1.60;;;1.35;;
7460;SDS011;6757;52.258;12.840;2024-01-30T02:01:36;1.00;;;0.93;;
7460;SDS011;6757;52.258;12.840;2024-01-30T02:04:06;0.60;;;0.60;;
7460;SDS011;6757;52.258;12.840;2024-01-30T02:06:33;3.90;;;1.92;;
7460;SDS011;6757;52.258;12.840;2024-01-30T02:09:02;1.05;;;0.70;;
7460;SDS011;6757;52.258;12.840;2024-01-30T02:11:29;0.35;;;0.35;;
7460;SDS011;6757;52.258;12.840;2024-01-30T02:13:57;0.55;;;0.40;;
7460;SDS011;6757;52.258;12.840;2024-01-30T02:16:28;0.80;;;0.77;;
7460;SDS011;6757;52.258;12.840;2024-01-30T02:18:55;0.75;;;0.60;;
7460;SDS011;6757;52.258;12.840;2024-01-30T02:21:25;4.47;;;1.88;;
7460;SDS011;6757;52.258;12.840;2024-01-30T02:23:52;0.65;;;0.65;;
7460;SDS011;6757;52.258;12.840;2024-01-30T02:26:21;1.58;;;1.40;;
7460;SDS011;6757;52.258;12.840;2024-01-30T02:28:48;0.55;;;0.55;;
7460;SDS011;6757;52.258;12.840;2024-01-30T02:31:15;1.13;;;0.90;;
7460;SDS011;6757;52.258;12.840;2024-01-30T02:33:45;1.88;;;1.42;;
7460;SDS011;6757;52.258;12.840;2024-01-30T02:36:12;3.28;;;0.93;;
7460;SDS011;6757;52.258;12.840;2024-01-30T02:38:43;1.20;;;0.88;;
7460;SDS011;6757;52.258;12.840;2024-01-30T02:41:11;1.83;;;1.05;;
7460;SDS011;6757;52.258;12.840;2024-01-30T02:43:40;2.92;;;1.92;;
7460;SDS011;6757;52.258;12.840;2024-01-30T02:46:08;0.80;;;0.80;;
7460;SDS011;6757;52.258;12.840;2024-01-30T02:48:35;0.95;;;0.80;;
7460;SDS011;6757;52.258;12.840;2024-01-30T02:51:04;0.32;;;0.32;;
7460;SDS011;6757;52.258;12.840;2024-01-30T02:53:31;0.47;;;0.47;;
7460;SDS011;6757;52.258;12.840;2024-01-30T02:56:01;0.73;;;0.73;;
7460;SDS011;6757;52.258;12.840;2024-01-30T02:58:28;0.40;;;0.40;;
7460;SDS011;6757;52.258;12.840;2024-01-30T03:00:55;0.85;;;0.70;;
7460;SDS011;6757;52.258;12.840;2024-01-30T03:03:22;2.30;;;1.25;;
7460;SDS011;6757;52.258;12.840;2024-01-30T03:05:49;0.15;;;0.15;;
7460;SDS011;6757;52.258;12.840;2024-01-30T03:08:16;2.00;;;0.90;;
7460;SDS011;6757;52.258;12.840;2024-01-30T03:10:44;1.90;;;0.77;;
7460;SDS011;6757;52.258;12.840;2024-01-30T03:13:15;2.92;;;1.60;;
7460;SDS011;6757;52.258;12.840;2024-01-30T03:15:42;1.92;;;1.30;;
7460;SDS011;6757;52.258;12.840;2024-01-30T03:18:09;2.28;;;1.48;;
7460;SDS011;6757;52.258;12.840;2024-01-30T03:20:36;0.30;;;0.30;;
7460;SDS011;6757;52.258;12.840;2024-01-30T03:23:03;2.88;;;1.67;;
7460;SDS011;6757;52.258;12.840;2024-01-30T03:25:31;0.73;;;0.68;;
7460;SDS011;6757;52.258;12.840;2024-01-30T03:27:58;2.55;;;1.27;;
7460;SDS011;6757;52.258;12.840;2024-01-30T03:30:26;4.13;;;0.80;;
7460;SDS011;6757;52.258;12.840;2024-01-30T03:32:53;1.27;;;0.90;;
7460;SDS011;6757;52.258;12.840;2024-01-30T03:35:20;2.17;;;1.35;;
7460;SDS011;6757;52.258;12.840;2024-01-30T03:37:48;2.85;;;1.52;;
7460;SDS011;6757;52.258;12.840;2024-01-30T03:40:14;1.98;;;1.38;;
7460;SDS011;6757;52.258;12.840;2024-01-30T03:42:42;5.82;;;2.80;;
7460;SDS011;6757;52.258;12.840;2024-01-30T03:45:09;2.45;;;1.50;;
7460;SDS011;6757;52.258;12.840;2024-01-30T03:47:39;0.85;;;0.75;;
7460;SDS011;6757;52.258;12.840;2024-01-30T03:50:06;1.85;;;0.63;;
7460;SDS011;6757;52.258;12.840;2024-01-30T03:52:34;2.17;;;1.25;;
7460;SDS011;6757;52.258;12.840;2024-01-30T03:55:01;1.88;;;1.52;;
7460;SDS011;6757;52.258;12.840;2024-01-30T03:57:29;3.30;;;1.98;;
7460;SDS011;6757;52.258;12.840;2024-01-30T03:59:57;1.65;;;1.05;;
7460;SDS011;6757;52.258;12.840;2024-01-30T04:02:25;0.57;;;0.57;;
7460;SDS011;6757;52.258;12.840;2024-01-30T04:04:54;0.73;;;0.73;;
7460;SDS011;6757;52.258;12.840;2024-01-30T04:07:21;2.10;;;0.63;;
7460;SDS011;6757;52.258;12.840;2024-01-30T04:09:48;1.45;;;1.30;;
7460;SDS011;6757;52.258;12.840;2024-01-30T04:12:16;1.45;;;1.00;;
7460;SDS011;6757;52.258;12.840;2024-01-30T04:14:42;1.90;;;1.40;;
7460;SDS011;6757;52.258;12.840;2024-01-30T04:17:09;1.52;;;1.25;;
7460;SDS011;6757;52.258;12.840;2024-01-30T04:19:37;0.90;;;0.90;;
7460;SDS011;6757;52.258;12.840;2024-01-30T04:22:06;2.13;;;1.00;;
7460;SDS011;6757;52.258;12.840;2024-01-30T04:24:34;5.30;;;1.77;;
7460;SDS011;6757;52.258;12.840;2024-01-30T04:27:02;1.58;;;0.90;;
7460;SDS011;6757;52.258;12.840;2024-01-30T04:29:30;0.45;;;0.43;;
7460;SDS011;6757;52.258;12.840;2024-01-30T04:31:59;0.45;;;0.45;;
7460;SDS011;6757;52.258;12.840;2024-01-30T04:34:26;1.65;;;1.55;;
7460;SDS011;6757;52.258;12.840;2024-01-30T04:36:54;0.32;;;0.32;;
7460;SDS011;6757;52.258;12.840;2024-01-30T04:39:24;1.30;;;0.75;;
7460;SDS011;6757;52.258;12.840;2024-01-30T04:41:50;3.30;;;1.77;;
7460;SDS011;6757;52.258;12.840;2024-01-30T04:44:17;1.10;;;0.88;;
7460;SDS011;6757;52.258;12.840;2024-01-30T04:46:46;3.20;;;1.30;;
7460;SDS011;6757;52.258;12.840;2024-01-30T04:49:13;1.10;;;0.82;;
7460;SDS011;6757;52.258;12.840;2024-01-30T04:51:40;1.67;;;1.08;;
7460;SDS011;6757;52.258;12.840;2024-01-30T04:54:07;3.30;;;1.88;;
7460;SDS011;6757;52.258;12.840;2024-01-30T04:56:36;1.65;;;1.52;;
7460;SDS011;6757;52.258;12.840;2024-01-30T04:59:04;1.55;;;0.80;;
7460;SDS011;6757;52.258;12.840;2024-01-30T05:01:33;0.45;;;0.45;;
7460;SDS011;6757;52.258;12.840;2024-01-30T05:04:00;0.82;;;0.82;;
7460;SDS011;6757;52.258;12.840;2024-01-30T05:06:28;1.83;;;1.00;;
7460;SDS011;6757;52.258;12.840;2024-01-30T05:08:55;1.25;;;0.75;;
7460;SDS011;6757;52.258;12.840;2024-01-30T05:11:22;2.40;;;1.10;;
7460;SDS011;6757;52.258;12.840;2024-01-30T05:13:53;1.63;;;1.13;;
7460;SDS011;6757;52.258;12.840;2024-01-30T05:16:20;1.80;;;1.17;;
7460;SDS011;6757;52.258;12.840;2024-01-30T05:18:48;2.25;;;1.25;;
7460;SDS011;6757;52.258;12.840;2024-01-30T05:21:15;0.73;;;0.73;;
7460;SDS011;6757;52.258;12.840;2024-01-30T05:23:42;0.73;;;0.73;;
7460;SDS011;6757;52.258;12.840;2024-01-30T05:26:09;1.95;;;1.60;;
7460;SDS011;6757;52.258;12.840;2024-01-30T05:28:35;2.45;;;1.20;;
7460;SDS011;6757;52.258;12.840;2024-01-30T05:31:04;5.03;;;1.73;;
7460;SDS011;6757;52.258;12.840;2024-01-30T05:33:31;4.35;;;2.30;;
7460;SDS011;6757;52.258;12.840;2024-01-30T05:35:58;5.22;;;1.52;;
7460;SDS011;6757;52.258;12.840;2024-01-30T05:38:26;2.80;;;1.63;;
7460;SDS011;6757;52.258;12.840;2024-01-30T05:40:52;1.10;;;1.05;;
7460;SDS011;6757;52.258;12.840;2024-01-30T05:43:19;2.28;;;1.42;;
7460;SDS011;6757;52.258;12.840;2024-01-30T05:45:46;1.98;;;1.38;;
7460;SDS011;6757;52.258;12.840;2024-01-30T05:48:14;3.58;;;1.75;;
7460;SDS011;6757;52.258;12.840;2024-01-30T05:50:41;2.88;;;1.38;;
7460;SDS011;6757;52.258;12.840;2024-01-30T05:53:10;2.78;;;1.35;;
7460;SDS011;6757;52.258;12.840;2024-01-30T05:55:37;0.80;;;0.80;;
7460;SDS011;6757;52.258;12.840;2024-01-30T05:58:04;2.63;;;0.90;;
7460;SDS011;6757;52.258;12.840;2024-01-30T06:00:32;0.90;;;0.80;;
7460;SDS011;6757;52.258;12.840;2024-01-30T06:02:59;1.38;;;0.98;;
7460;SDS011;6757;52.258;12.840;2024-01-30T06:05:27;1.52;;;0.82;;
7460;SDS011;6757;52.258;12.840;2024-01-30T06:07:54;6.40;;;2.53;;
7460;SDS011;6757;52.258;12.840;2024-01-30T06:10:21;3.92;;;2.15;;
7460;SDS011;6757;52.258;12.840;2024-01-30T06:12:47;7.20;;;2.58;;
7460;SDS011;6757;52.258;12.840;2024-01-30T06:15:14;7.28;;;1.65;;
7460;SDS011;6757;52.258;12.840;2024-01-30T06:17:42;2.58;;;1.63;;
7460;SDS011;6757;52.258;12.840;2024-01-30T06:20:08;2.85;;;1.48;;
7460;SDS011;6757;52.258;12.840;2024-01-30T06:22:38;1.17;;;0.95;;
7460;SDS011;6757;52.258;12.840;2024-01-30T06:25:05;1.08;;;1.02;;
7460;SDS011;6757;52.258;12.840;2024-01-30T06:27:33;2.88;;;1.08;;
7460;SDS011;6757;52.258;12.840;2024-01-30T06:30:00;2.03;;;1.35;;
7460;SDS011;6757;52.258;12.840;2024-01-30T06:32:27;8.65;;;3.08;;
7460;SDS011;6757;52.258;12.840;2024-01-30T06:34:59;1.55;;;0.82;;
7460;SDS011;6757;52.258;12.840;2024-01-30T06:37:26;2.88;;;1.80;;
7460;SDS011;6757;52.258;12.840;2024-01-30T06:39:55;2.20;;;1.52;;
7460;SDS011;6757;52.258;12.840;2024-01-30T06:42:23;1.60;;;0.93;;
7460;SDS011;6757;52.258;12.840;2024-01-30T06:44:50;2.00;;;1.00;;
7460;SDS011;6757;52.258;12.840;2024-01-30T06:47:18;0.35;;;0.35;;
7460;SDS011;6757;52.258;12.840;2024-01-30T06:49:45;2.85;;;1.50;;
7460;SDS011;6757;52.258;12.840;2024-01-30T06:52:12;1.92;;;1.02;;
7460;SDS011;6757;52.258;12.840;2024-01-30T06:54:40;1.55;;;1.23;;
7460;SDS011;6757;52.258;12.840;2024-01-30T06:57:09;2.08;;;1.42;;
7460;SDS011;6757;52.258;12.840;2024-01-30T06:59:37;2.67;;;1.85;;
7460;SDS011;6757;52.258;12.840;2024-01-30T07:02:08;1.25;;;0.57;;
7460;SDS011;6757;52.258;12.840;2024-01-30T07:04:34;1.15;;;0.95;;
7460;SDS011;6757;52.258;12.840;2024-01-30T07:07:04;0.43;;;0.43;;
7460;SDS011;6757;52.258;12.840;2024-01-30T07:09:37;2.08;;;1.02;;
7460;SDS011;6757;52.258;12.840;2024-01-30T07:12:05;0.60;;;0.60;;
7460;SDS011;6757;52.258;12.840;2024-01-30T07:14:35;1.88;;;0.98;;
7460;SDS011;6757;52.258;12.840;2024-01-30T07:17:02;1.15;;;1.10;;
7460;SDS011;6757;52.258;12.840;2024-01-30T07:19:30;2.45;;;1.02;;
7460;SDS011;6757;52.258;12.840;2024-01-30T07:21:56;1.83;;;0.98;;
7460;SDS011;6757;52.258;12.840;2024-01-30T07:24:24;5.68;;;2.10;;
7460;SDS011;6757;52.258;12.840;2024-01-30T07:26:52;2.33;;;1.58;;
7460;SDS011;6757;52.258;12.840;2024-01-30T07:29:19;2.10;;;1.67;;
7460;SDS011;6757;52.258;12.840;2024-01-30T07:31:49;2.90;;;1.27;;
7460;SDS011;6757;52.258;12.840;2024-01-30T07:34:15;1.05;;;0.95;;
7460;SDS011;6757;52.258;12.840;2024-01-30T07:36:43;2.63;;;1.98;;
7460;SDS011;6757;52.258;12.840;2024-01-30T07:39:12;1.48;;;1.25;;
7460;SDS011;6757;52.258;12.840;2024-01-30T07:41:41;5.85;;;2.60;;
7460;SDS011;6757;52.258;12.840;2024-01-30T07:44:10;1.70;;;1.60;;
7460;SDS011;6757;52.258;12.840;2024-01-30T07:46:37;5.00;;;1.48;;
7460;SDS011;6757;52.258;12.840;2024-01-30T07:49:05;2.53;;;1.33;;
7460;SDS011;6757;52.258;12.840;2024-01-30T07:51:32;1.13;;;1.02;;
7460;SDS011;6757;52.258;12.840;2024-01-30T07:53:59;1.25;;;1.15;;
7460;SDS011;6757;52.258;12.840;2024-01-30T07:56:26;1.70;;;0.90;;
7460;SDS011;6757;52.258;12.840;2024-01-30T07:58:53;2.88;;;1.88;;
7460;SDS011;6757;52.258;12.840;2024-01-30T08:01:21;1.38;;;1.27;;
7460;SDS011;6757;52.258;12.840;2024-01-30T08:03:48;1.02;;;1.00;;
7460;SDS011;6757;52.258;12.840;2024-01-30T08:06:17;1.23;;;1.05;;
7460;SDS011;6757;52.258;12.840;2024-01-30T08:08:44;1.98;;;1.10;;
7460;SDS011;6757;52.258;12.840;2024-01-30T08:11:12;0.80;;;0.80;;
7460;SDS011;6757;52.258;12.840;2024-01-30T08:13:39;1.92;;;1.13;;
7460;SDS011;6757;52.258;12.840;2024-01-30T08:16:06;2.10;;;1.48;;
7460;SDS011;6757;52.258;12.840;2024-01-30T08:18:33;2.85;;;2.38;;
7460;SDS011;6757;52.258;12.840;2024-01-30T08:21:00;4.07;;;2.25;;
7460;SDS011;6757;52.258;12.840;2024-01-30T08:23:29;4.72;;;1.67;;
7460;SDS011;6757;52.258;12.840;2024-01-30T08:25:56;2.22;;;1.63;;
7460;SDS011;6757;52.258;12.840;2024-01-30T08:28:24;1.52;;;1.35;;
7460;SDS011;6757;52.258;12.840;2024-01-30T08:30:52;4.22;;;1.50;;
7460;SDS011;6757;52.258;12.840;2024-01-30T08:33:20;8.18;;;2.20;;
7460;SDS011;6757;52.258;12.840;2024-01-30T08:35:47;1.67;;;1.58;;
7460;SDS011;6757;52.258;12.840;2024-01-30T08:38:15;2.83;;;1.85;;
7460;SDS011;6757;52.258;12.840;2024-01-30T08:40:46;6.90;;;2.28;;
7460;SDS011;6757;52.258;12.840;2024-01-30T08:43:13;7.57;;;2.17;;
7460;SDS011;6757;52.258;12.840;2024-01-30T08:45:40;1.65;;;1.15;;
7460;SDS011;6757;52.258;12.840;2024-01-30T08:48:08;5.20;;;2.25;;
7460;SDS011;6757;52.258;12.840;2024-01-30T08:50:35;5.43;;;1.92;;
7460;SDS011;6757;52.258;12.840;2024-01-30T08:53:02;4.75;;;2.08;;
7460;SDS011;6757;52.258;12.840;2024-01-30T08:55:29;1.55;;;1.25;;
7460;SDS011;6757;52.258;12.840;2024-01-30T08:57:58;6.75;;;3.13;;
7460;SDS011;6757;52.258;12.840;2024-01-30T09:00:25;3.53;;;1.85;;
7460;SDS011;6757;52.258;12.840;2024-01-30T09:02:53;4.47;;;1.48;;
7460;SDS011;6757;52.258;12.840;2024-01-30T09:05:20;2.45;;;1.63;;
7460;SDS011;6757;52.258;12.840;2024-01-30T09:07:49;4.45;;;1.70;;
7460;SDS011;6757;52.258;12.840;2024-01-30T09:10:17;6.30;;;3.20;;
7460;SDS011;6757;52.258;12.840;2024-01-30T09:12:44;2.20;;;1.42;;
7460;SDS011;6757;52.258;12.840;2024-01-30T09:15:15;4.47;;;2.20;;
7460;SDS011;6757;52.258;12.840;2024-01-30T09:17:42;2.53;;;1.98;;
7460;SDS011;6757;52.258;12.840;2024-01-30T09:20:09;4.65;;;1.85;;
7460;SDS011;6757;52.258;12.840;2024-01-30T09:22:37;5.63;;;1.90;;
7460;SDS011;6757;52.258;12.840;2024-01-30T09:25:04;2.28;;;1.63;;
7460;SDS011;6757;52.258;12.840;2024-01-30T09:27:32;2.78;;;1.50;;
7460;SDS011;6757;52.258;12.840;2024-01-30T09:30:00;2.50;;;1.73;;
7460;SDS011;6757;52.258;12.840;2024-01-30T09:32:29;7.13;;;2.55;;
7460;SDS011;6757;52.258;12.840;2024-01-30T09:34:56;4.20;;;2.40;;
7460;SDS011;6757;52.258;12.840;2024-01-30T09:37:24;1.90;;;1.40;;
7460;SDS011;6757;52.258;12.840;2024-01-30T09:39:51;6.68;;;2.47;;
7460;SDS011;6757;52.258;12.840;2024-01-30T09:42:21;5.10;;;2.90;;
7460;SDS011;6757;52.258;12.840;2024-01-30T09:44:55;5.97;;;2.70;;
7460;SDS011;6757;52.258;12.840;2024-01-30T09:47:23;2.80;;;2.10;;
7460;SDS011;6757;52.258;12.840;2024-01-30T09:49:51;3.38;;;2.33;;
7460;SDS011;6757;52.258;12.840;2024-01-30T09:52:18;3.05;;;1.88;;
7460;SDS011;6757;52.258;12.840;2024-01-30T09:54:45;4.07;;;2.45;;
7460;SDS011;6757;52.258;12.840;2024-01-30T09:57:13;3.88;;;2.35;;
7460;SDS011;6757;52.258;12.840;2024-01-30T09:59:41;3.70;;;2.35;;
7460;SDS011;6757;52.258;12.840;2024-01-30T10:02:09;7.55;;;3.50;;
7460;SDS011;6757;52.258;12.840;2024-01-30T10:04:37;7.07;;;2.50;;
7460;SDS011;6757;52.258;12.840;2024-01-30T10:07:05;4.95;;;2.65;;
7460;SDS011;6757;52.258;12.840;2024-01-30T10:09:33;4.05;;;1.95;;
7460;SDS011;6757;52.258;12.840;2024-01-30T10:12:00;4.35;;;2.03;;
7460;SDS011;6757;52.258;12.840;2024-01-30T10:14:29;6.50;;;1.85;;
7460;SDS011;6757;52.258;12.840;2024-01-30T10:16:57;3.05;;;1.85;;
7460;SDS011;6757;52.258;12.840;2024-01-30T10:19:24;5.32;;;2.17;;
7460;SDS011;6757;52.258;12.840;2024-01-30T10:21:52;7.90;;;2.53;;
7460;SDS011;6757;52.258;12.840;2024-01-30T10:24:24;5.57;;;2.10;;
7460;SDS011;6757;52.258;12.840;2024-01-30T10:26:54;5.38;;;2.80;;
7460;SDS011;6757;52.258;12.840;2024-01-30T10:29:23;5.88;;;2.97;;
7460;SDS011;6757;52.258;12.840;2024-01-30T10:31:57;4.30;;;2.17;;
7460;SDS011;6757;52.258;12.840;2024-01-30T10:34:25;2.97;;;1.80;;
7460;SDS011;6757;52.258;12.840;2024-01-30T10:36:59;4.97;;;1.85;;
7460;SDS011;6757;52.258;12.840;2024-01-30T10:39:39;3.72;;;1.92;;
7460;SDS011;6757;52.258;12.840;2024-01-30T10:42:06;5.07;;;2.58;;
7460;SDS011;6757;52.258;12.840;2024-01-30T10:44:44;6.75;;;2.92;;
7460;SDS011;6757;52.258;12.840;2024-01-30T10:47:25;2.88;;;2.03;;
7460;SDS011;6757;52.258;12.840;2024-01-30T10:49:54;8.00;;;3.33;;
7460;SDS011;6757;52.258;12.840;2024-01-30T10:52:24;6.63;;;3.35;;
7460;SDS011;6757;52.258;12.840;2024-01-30T10:54:54;4.63;;;2.53;;
7460;SDS011;6757;52.258;12.840;2024-01-30T10:57:21;2.65;;;1.48;;
7460;SDS011;6757;52.258;12.840;2024-01-30T10:59:51;2.45;;;1.55;;
7460;SDS011;6757;52.258;12.840;2024-01-30T11:02:20;3.33;;;2.25;;
7460;SDS011;6757;52.258;12.840;2024-01-30T11:04:49;5.32;;;2.72;;
7460;SDS011;6757;52.258;12.840;2024-01-30T11:07:16;5.15;;;1.98;;
7460;SDS011;6757;52.258;12.840;2024-01-30T11:09:49;5.70;;;2.25;;
7460;SDS011;6757;52.258;12.840;2024-01-30T11:12:20;9.18;;;2.78;;
7460;SDS011;6757;52.258;12.840;2024-01-30T11:14:49;7.30;;;2.58;;
7460;SDS011;6757;52.258;12.840;2024-01-30T11:17:16;7.45;;;2.92;;
7460;SDS011;6757;52.258;12.840;2024-01-30T11:19:43;6.35;;;2.92;;
7460;SDS011;6757;52.258;12.840;2024-01-30T11:22:13;7.55;;;3.10;;
7460;SDS011;6757;52.258;12.840;2024-01-30T11:24:42;5.40;;;3.10;;
7460;SDS011;6757;52.258;12.840;2024-01-30T11:27:09;8.32;;;3.20;;
7460;SDS011;6757;52.258;12.840;2024-01-30T11:29:39;7.32;;;2.60;;
7460;SDS011;6757;52.258;12.840;2024-01-30T11:32:06;7.53;;;2.90;;
7460;SDS011;6757;52.258;12.840;2024-01-30T11:34:33;4.68;;;2.25;;
7460;SDS011;6757;52.258;12.840;2024-01-30T11:37:03;3.35;;;2.10;;
7460;SDS011;6757;52.258;12.840;2024-01-30T11:39:38;9.30;;;3.25;;
7460;SDS011;6757;52.258;12.840;2024-01-30T11:42:06;5.00;;;2.92;;
7460;SDS011;6757;52.258;12.840;2024-01-30T11:44:35;6.05;;;2.60;;
7460;SDS011;6757;52.258;12.840;2024-01-30T11:47:04;7.53;;;2.60;;
7460;SDS011;6757;52.258;12.840;2024-01-30T11:49:31;5.95;;;2.50;;
7460;SDS011;6757;52.258;12.840;2024-01-30T11:51:58;5.05;;;2.55;;
7460;SDS011;6757;52.258;12.840;2024-01-30T11:54:25;6.00;;;3.17;;
7460;SDS011;6757;52.258;12.840;2024-01-30T11:56:52;6.43;;;2.90;;
7460;SDS011;6757;52.258;12.840;2024-01-30T11:59:20;7.85;;;3.47;;
7460;SDS011;6757;52.258;12.840;2024-01-30T12:01:47;7.53;;;2.95;;
7460;SDS011;6757;52.258;12.840;2024-01-30T12:04:17;7.32;;;3.08;;
7460;SDS011;6757;52.258;12.840;2024-01-30T12:06:44;9.85;;;3.97;;
7460;SDS011;6757;52.258;12.840;2024-01-30T12:09:16;8.90;;;4.30;;
7460;SDS011;6757;52.258;12.840;2024-01-30T12:11:44;7.43;;;2.40;;
7460;SDS011;6757;52.258;12.840;2024-01-30T12:14:12;9.15;;;3.13;;
7460;SDS011;6757;52.258;12.840;2024-01-30T12:16:40;7.90;;;2.85;;
7460;SDS011;6757;52.258;12.840;2024-01-30T12:19:07;4.28;;;2.60;;
7460;SDS011;6757;52.258;12.840;2024-01-30T12:21:37;6.93;;;2.72;;
7460;SDS011;6757;52.258;12.840;2024-01-30T12:24:05;7.13;;;3.30;;
7460;SDS011;6757;52.258;12.840;2024-01-30T12:26:33;10.02;;;3.15;;
7460;SDS011;6757;52.258;12.840;2024-01-30T12:29:03;8.40;;;3.33;;
7460;SDS011;6757;52.258;12.840;2024-01-30T12:31:31;3.33;;;2.55;;
7460;SDS011;6757;52.258;12.840;2024-01-30T12:33:59;7.53;;;2.78;;
7460;SDS011;6757;52.258;12.840;2024-01-30T12:36:28;7.45;;;3.40;;
7460;SDS011;6757;52.258;12.840;2024-01-30T12:38:58;10.93;;;2.88;;
7460;SDS011;6757;52.258;12.840;2024-01-30T12:41:25;7.00;;;3.45;;
7460;SDS011;6757;52.258;12.840;2024-01-30T12:43:54;9.00;;;3.00;;
7460;SDS011;6757;52.258;12.840;2024-01-30T12:46:25;6.80;;;2.60;;
7460;SDS011;6757;52.258;12.840;2024-01-30T12:48:54;6.97;;;2.65;;
7460;SDS011;6757;52.258;12.840;2024-01-30T12:51:26;6.43;;;2.45;;
7460;SDS011;6757;52.258;12.840;2024-01-30T12:53:53;7.75;;;3.30;;
7460;SDS011;6757;52.258;12.840;2024-01-30T12:56:21;7.13;;;2.90;;
7460;SDS011;6757;52.258;12.840;2024-01-30T12:58:48;8.27;;;3.42;;
7460;SDS011;6757;52.258;12.840;2024-01-30T13:01:17;6.80;;;2.53;;
7460;SDS011;6757;52.258;12.840;2024-01-30T13:03:45;7.15;;;2.55;;
7460;SDS011;6757;52.258;12.840;2024-01-30T13:06:13;8.63;;;3.47;;
7460;SDS011;6757;52.258;12.840;2024-01-30T13:08:40;7.72;;;3.10;;
7460;SDS011;6757;52.258;12.840;2024-01-30T13:11:07;3.70;;;2.35;;
7460;SDS011;6757;52.258;12.840;2024-01-30T13:13:36;4.78;;;2.58;;
7460;SDS011;6757;52.258;12.840;2024-01-30T13:16:03;5.28;;;2.97;;
7460;SDS011;6757;52.258;12.840;2024-01-30T13:18:31;5.60;;;2.97;;
7460;SDS011;6757;52.258;12.840;2024-01-30T13:20:58;6.15;;;2.92;;
7460;SDS011;6757;52.258;12.840;2024-01-30T13:23:26;3.95;;;2.38;;
7460;SDS011;6757;52.258;12.840;2024-01-30T13:25:52;3.38;;;2.38;;
7460;SDS011;6757;52.258;12.840;2024-01-30T13:28:23;11.77;;;3.25;;
7460;SDS011;6757;52.258;12.840;2024-01-30T13:30:54;7.63;;;3.05;;
7460;SDS011;6757;52.258;12.840;2024-01-30T13:33:21;7.57;;;2.67;;
7460;SDS011;6757;52.258;12.840;2024-01-30T13:35:48;3.92;;;2.33;;
7460;SDS011;6757;52.258;12.840;2024-01-30T13:38:16;8.43;;;2.80;;
7460;SDS011;6757;52.258;12.840;2024-01-30T13:40:44;5.20;;;2.83;;
7460;SDS011;6757;52.258;12.840;2024-01-30T13:43:12;10.68;;;3.40;;
7460;SDS011;6757;52.258;12.840;2024-01-30T13:45:39;4.85;;;2.75;;
7460;SDS011;6757;52.258;12.840;2024-01-30T13:48:09;9.18;;;3.17;;
7460;SDS011;6757;52.258;12.840;2024-01-30T13:50:37;4.72;;;2.33;;
7460;SDS011;6757;52.258;12.840;2024-01-30T13:53:03;5.28;;;2.75;;
7460;SDS011;6757;52.258;12.840;2024-01-30T13:55:33;3.92;;;2.50;;
7460;SDS011;6757;52.258;12.840;2024-01-30T13:58:00;4.28;;;2.25;;
7460;SDS011;6757;52.258;12.840;2024-01-30T14:00:27;7.18;;;2.88;;
7460;SDS011;6757;52.258;12.840;2024-01-30T14:02:54;4.07;;;2.38;;
7460;SDS011;6757;52.258;12.840;2024-01-30T14:05:24;6.72;;;3.03;;
7460;SDS011;6757;52.258;12.840;2024-01-30T14:07:53;5.90;;;2.63;;
7460;SDS011;6757;52.258;12.840;2024-01-30T14:10:20;7.95;;;2.75;;
7460;SDS011;6757;52.258;12.840;2024-01-30T14:12:47;8.82;;;3.15;;
7460;SDS011;6757;52.258;12.840;2024-01-30T14:15:14;4.55;;;2.72;;
7460;SDS011;6757;52.258;12.840;2024-01-30T14:17:43;5.53;;;2.83;;
7460;SDS011;6757;52.258;12.840;2024-01-30T14:20:10;7.18;;;3.00;;
7460;SDS011;6757;52.258;12.840;2024-01-30T14:22:43;9.40;;;3.53;;
7460;SDS011;6757;52.258;12.840;2024-01-30T14:25:10;8.45;;;3.00;;
7460;SDS011;6757;52.258;12.840;2024-01-30T14:27:37;4.65;;;3.00;;
7460;SDS011;6757;52.258;12.840;2024-01-30T14:30:05;10.18;;;3.35;;
7460;SDS011;6757;52.258;12.840;2024-01-30T14:32:36;7.40;;;2.92;;
7460;SDS011;6757;52.258;12.840;2024-01-30T14:35:07;9.93;;;3.95;;
7460;SDS011;6757;52.258;12.840;2024-01-30T14:37:35;6.65;;;2.58;;
7460;SDS011;6757;52.258;12.840;2024-01-30T14:40:05;8.50;;;3.00;;
7460;SDS011;6757;52.258;12.840;2024-01-30T14:42:33;6.45;;;2.75;;
7460;SDS011;6757;52.258;12.840;2024-01-30T14:45:00;7.55;;;2.83;;
7460;SDS011;6757;52.258;12.840;2024-01-30T14:47:27;10.43;;;3.40;;
7460;SDS011;6757;52.258;12.840;2024-01-30T14:49:55;8.70;;;2.97;;
7460;SDS011;6757;52.258;12.840;2024-01-30T14:52:23;6.00;;;3.03;;
7460;SDS011;6757;52.258;12.840;2024-01-30T14:54:49;9.10;;;3.40;;
7460;SDS011;6757;52.258;12.840;2024-01-30T14:57:18;8.13;;;3.22;;
7460;SDS011;6757;52.258;12.840;2024-01-30T14:59:45;7.97;;;3.35;;
7460;SDS011;6757;52.258;12.840;2024-01-30T15:02:13;8.43;;;3.67;;
7460;SDS011;6757;52.258;12.840;2024-01-30T15:04:40;10.35;;;3.65;;